Phoenix, AZ (85062)

11:24 PM MST on September 17, 2014 (GMT -0700)
AZCC | Change Station
CLOSE
Current Station
Personal Weather Station
Location: Phoenix, AZ
Elevation: 1270 ft
Nearby Weather Stations

Elev 1270 ft 33.48 °N, 111.95 °W | Updated 2 seconds ago

Partly Cloudy
Partly Cloudy
83.2 °F
Feels Like 86 °F
N
3.4
Wind Variable Wind from ENE
Gusts 3.4 mph

Today
High -- | Low -- °F
--% Chance of Precip.
Yesterday
High -- | Low -- °F
Precip. -- in
6:12 AM 6:31 PM
Waning Crescent, 29% visible
Pressure 29.69 in
Visibility 10.0 miles
Clouds Few 22000 ft
Heat Index 86 °F
Dew Point 68 °F
Humidity 61%
Rainfall 0.12 in
Snow Depth 1 in , 0 in , 0 in
UV 0 out of 12
Pollen 2.50 out of 12
Ozone Good
PM2.5 Good
Flu Activity Not available.
METAR KPHX 180551Z 06011KT 10SM FEW220 28/19 A2974 RMK AO2 SLP052 T02830189 10306 20267 50000

More Conditions Fewer Conditions

Pressure 29.69 in
Visibility 10.0 miles
Clouds Few 22000 ft
Heat Index 86 °F
Dew Point 68 °F
Humidity 61%
Rainfall 0.12 in
Snow Depth 1 in , 0 in , 0 in
UV 0 out of 12
Pollen 2.50 out of 12
Ozone Good
PM2.5 Good
Flu Activity Not available.
METAR KPHX 180551Z 06011KT 10SM FEW220 28/19 A2974 RMK AO2 SLP052 T02830189 10306 20267 50000

More Conditions Fewer Conditions

10-Day Weather Forecast

Almanac

Astronomy

Sep. 17, 2014 Rise Set
Actual Time 6:12 AM MST 6:31 PM MST
Civil Twilight 5:47 AM MST 6:56 PM MST
Nautical Twilight 5:18 AM MST 7:25 PM MST
Astronomical Twilight 4:49 AM MST 7:54 PM MST
Moon 12:28 AM MST (9/17) 2:32 PM MST (9/17)
Length of Visible Light 13h 08m
Length of Day
12h 18m
Tomorrow will be 2m 2s shorter.
Waning Crescent, 29% of the Moon is Illuminated
Sep 18
Waning Crescent
Sep 24
New
Oct 1
First Quarter
Oct 8
Full
Oct 15
Last Quarter

Community

WunderPhotos

Upload Photos

1,754,299 photos uploaded!

Nearby

Air Quality

  Air Quality AQ Index Pollutant
Yesterday Good
PM2.5
Yesterday Good
OZONE
Current Good
OZONE
Current Good
PM2.5
Wednesday Good
OZONE
Wednesday Good
PM10
Wednesday Good
CO
Thursday Good
OZONE
Thursday Good
PM10
Thursday Good
CO
Friday Good
OZONE
Friday Good
PM10
Friday Good
CO

Snow Depth

Station Depth Elevation
Workman Creek 1 in 6900 ft
Happy Jack 0 in 7630 ft
Fry 0 in 7200 ft
Wildcat 0 in 7850 ft
Snowslide Canyon 0 in 9730 ft

Earthquake Activity

City Distance Mag. Time & Date
No recent earthquake activity has been reported nearby.
Minimum magnitude displayed is 2.5.

Coastal Water Temperatures

Place Temperature
No Stations Reporting

Nearby Weather Stations